createdAt,value
2023-02-05T00:01:41.018Z,9.93
2023-02-05T00:04:12.483Z,11.38
2023-02-05T00:06:44.760Z,11.20
2023-02-05T00:09:16.259Z,11.13
2023-02-05T00:11:47.700Z,11.07
2023-02-05T00:14:19.125Z,9.68
2023-02-05T00:16:51.693Z,10.95
2023-02-05T00:19:23.163Z,9.80
2023-02-05T00:21:54.640Z,8.32
2023-02-05T00:24:26.075Z,6.20
2023-02-05T00:26:57.557Z,5.13
2023-02-05T00:29:29.115Z,4.93
2023-02-05T00:32:00.629Z,4.53
2023-02-05T00:34:32.068Z,3.85
2023-02-05T00:37:03.566Z,3.40
2023-02-05T00:39:35.029Z,3.35
2023-02-05T00:42:06.495Z,2.97
2023-02-05T00:44:37.936Z,3.00
2023-02-05T00:47:09.359Z,2.83
2023-02-05T00:49:40.761Z,2.80
2023-02-05T00:52:12.240Z,2.53
2023-02-05T00:54:43.738Z,2.28
2023-02-05T00:57:15.165Z,2.72
2023-02-05T00:59:46.596Z,2.50
2023-02-05T01:02:19.515Z,2.72
2023-02-05T01:04:52.302Z,2.67
2023-02-05T01:07:23.843Z,2.47
2023-02-05T01:09:55.398Z,2.30
2023-02-05T01:12:26.849Z,2.40
2023-02-05T01:14:58.300Z,1.95
2023-02-05T01:17:29.811Z,2.28
2023-02-05T01:20:01.292Z,2.30
2023-02-05T01:22:32.772Z,2.30
2023-02-05T01:25:05.400Z,2.17
2023-02-05T01:27:37.206Z,1.85
2023-02-05T01:30:09.469Z,1.73
2023-02-05T01:32:40.919Z,2.00
2023-02-05T01:35:12.421Z,1.65
2023-02-05T01:37:43.911Z,1.45
2023-02-05T01:40:16.657Z,1.75
2023-02-05T01:42:48.300Z,1.65
2023-02-05T01:45:22.709Z,1.43
2023-02-05T01:47:56.613Z,1.70
2023-02-05T01:50:37.008Z,2.10
2023-02-05T01:53:11.645Z,1.50
2023-02-05T01:55:48.662Z,2.15
2023-02-05T01:58:20.211Z,1.77
2023-02-05T02:00:51.708Z,1.95
2023-02-05T02:03:25.377Z,2.03
2023-02-05T02:05:57.080Z,2.43
2023-02-05T02:08:28.716Z,2.33
2023-02-05T02:11:02.925Z,2.28
2023-02-05T02:13:36.538Z,2.30
2023-02-05T02:16:09.102Z,2.10
2023-02-05T02:18:41.018Z,2.55
2023-02-05T02:21:22.182Z,2.45
2023-02-05T02:24:19.456Z,2.00
2023-02-05T02:27:09.670Z,2.23
2023-02-05T02:29:44.193Z,3.00
2023-02-05T02:32:28.162Z,2.40
2023-02-05T02:35:10.964Z,2.55
2023-02-05T02:37:46.682Z,3.00
2023-02-05T02:40:23.938Z,3.15
2023-02-05T02:43:14.028Z,3.25
2023-02-05T02:45:51.571Z,2.67
2023-02-05T02:48:26.028Z,2.83
2023-02-05T02:50:58.749Z,3.03
2023-02-05T02:53:38.020Z,3.30
2023-02-05T02:56:12.398Z,3.30
2023-02-05T02:59:02.620Z,3.60
2023-02-05T03:01:37.766Z,3.95
2023-02-05T03:04:17.683Z,3.97
2023-02-05T03:06:52.257Z,3.70
2023-02-05T03:09:35.001Z,4.00
2023-02-05T03:12:06.502Z,4.22
2023-02-05T03:14:38.572Z,4.50
2023-02-05T03:17:10.240Z,4.75
2023-02-05T03:19:41.735Z,4.70
2023-02-05T03:22:13.215Z,4.47
2023-02-05T03:24:44.851Z,5.40
2023-02-05T03:27:16.459Z,5.57
2023-02-05T03:29:49.387Z,5.38
2023-02-05T03:32:36.626Z,5.53
2023-02-05T03:35:13.852Z,5.38
2023-02-05T03:38:08.337Z,5.35
2023-02-05T03:40:51.810Z,4.97
2023-02-05T03:43:58.333Z,5.82
2023-02-05T03:46:51.701Z,5.93
2023-02-05T03:49:41.980Z,5.83
2023-02-05T03:52:18.517Z,5.50
2023-02-05T03:55:13.407Z,5.82
2023-02-05T03:57:50.896Z,6.78
2023-02-05T04:00:24.691Z,5.93
2023-02-05T04:02:56.159Z,6.70
2023-02-05T04:05:27.553Z,6.97
2023-02-05T04:07:58.983Z,6.63
2023-02-05T04:10:30.433Z,5.47
2023-02-05T04:13:01.907Z,5.40
2023-02-05T04:15:33.761Z,5.15
2023-02-05T04:18:05.409Z,4.65
2023-02-05T04:20:36.833Z,3.72
2023-02-05T04:23:08.305Z,3.30
2023-02-05T04:25:39.933Z,2.67
2023-02-05T04:28:12.516Z,2.97
2023-02-05T04:30:44.007Z,2.67
2023-02-05T04:33:15.497Z,2.20
2023-02-05T04:35:47.105Z,2.43
2023-02-05T04:38:18.540Z,2.47
2023-02-05T04:40:49.967Z,2.95
2023-02-05T04:43:21.562Z,3.13
2023-02-05T04:45:53.069Z,3.40
2023-02-05T04:48:24.554Z,4.20
2023-02-05T04:50:56.006Z,3.95
2023-02-05T04:53:27.548Z,3.90
2023-02-05T04:56:15.870Z,4.20
2023-02-05T04:58:47.314Z,4.78
2023-02-05T05:01:21.710Z,5.10
2023-02-05T05:03:53.220Z,4.82
2023-02-05T05:06:25.442Z,4.55
2023-02-05T05:08:56.938Z,5.05
2023-02-05T05:11:28.428Z,4.40
2023-02-05T05:13:59.823Z,4.57
2023-02-05T05:16:31.270Z,5.13
2023-02-05T05:19:02.691Z,4.07
2023-02-05T05:21:34.129Z,3.70
2023-02-05T05:24:05.784Z,3.50
2023-02-05T05:26:37.272Z,3.60
2023-02-05T05:29:08.679Z,3.45
2023-02-05T05:31:41.136Z,3.67
2023-02-05T05:34:12.591Z,3.45
2023-02-05T05:36:47.492Z,3.20
2023-02-05T05:39:19.543Z,4.20
2023-02-05T05:41:50.980Z,4.00
2023-02-05T05:44:22.414Z,3.33
2023-02-05T05:46:53.853Z,3.53
2023-02-05T05:49:25.256Z,3.80
2023-02-05T05:51:56.694Z,4.25
2023-02-05T05:54:28.187Z,4.13
2023-02-05T05:56:59.668Z,4.38
2023-02-05T05:59:31.335Z,4.05
2023-02-05T06:02:03.244Z,3.80
2023-02-05T06:04:34.746Z,3.45
2023-02-05T06:07:06.219Z,4.25
2023-02-05T06:09:37.706Z,4.47
2023-02-05T06:12:11.370Z,4.40
2023-02-05T06:14:43.122Z,4.60
2023-02-05T06:17:14.520Z,5.10
2023-02-05T06:19:45.940Z,5.28
2023-02-05T06:22:17.335Z,4.90
2023-02-05T06:24:48.792Z,5.32
2023-02-05T06:27:20.308Z,4.85
2023-02-05T06:29:51.794Z,5.03
2023-02-05T06:32:25.828Z,5.28
2023-02-05T06:34:58.207Z,4.90
2023-02-05T06:37:46.025Z,5.55
2023-02-05T06:40:18.828Z,5.50
2023-02-05T06:42:50.304Z,5.03
2023-02-05T06:45:22.109Z,5.55
2023-02-05T06:47:53.555Z,5.45
2023-02-05T06:50:25.530Z,5.70
2023-02-05T06:52:57.043Z,5.32
2023-02-05T06:55:28.550Z,5.63
2023-02-05T06:57:59.954Z,5.27
2023-02-05T07:00:32.527Z,5.55
2023-02-05T07:03:04.287Z,5.07
2023-02-05T07:05:36.065Z,6.22
2023-02-05T07:08:07.719Z,5.88
2023-02-05T07:10:39.216Z,5.20
2023-02-05T07:13:10.662Z,5.55
2023-02-05T07:15:42.128Z,5.32
2023-02-05T07:18:13.590Z,6.00
2023-02-05T07:20:45.005Z,6.25
2023-02-05T07:23:16.416Z,4.82
2023-02-05T07:25:47.844Z,5.10
2023-02-05T07:28:19.278Z,4.40
2023-02-05T07:30:50.714Z,5.13
2023-02-05T07:33:22.190Z,5.25
2023-02-05T07:35:53.585Z,4.40
2023-02-05T07:38:25.000Z,4.78
2023-02-05T07:40:56.471Z,4.97
2023-02-05T07:43:27.932Z,5.55
2023-02-05T07:46:00.946Z,5.93
2023-02-05T07:48:33.263Z,6.00
2023-02-05T07:51:08.379Z,6.20
2023-02-05T07:53:39.819Z,6.55
2023-02-05T07:56:11.247Z,6.78
2023-02-05T07:58:42.978Z,7.07
2023-02-05T08:01:14.514Z,7.30
2023-02-05T08:03:46.218Z,7.38
2023-02-05T08:06:17.660Z,7.40
2023-02-05T08:08:49.125Z,7.40
2023-02-05T08:11:20.567Z,7.95
2023-02-05T08:13:51.991Z,7.85
2023-02-05T08:16:23.473Z,8.70
2023-02-05T08:18:54.880Z,8.63
2023-02-05T08:21:26.341Z,8.32
2023-02-05T08:23:57.855Z,8.70
2023-02-05T08:26:29.335Z,8.63
2023-02-05T08:29:00.840Z,8.00
2023-02-05T08:31:32.300Z,8.75
2023-02-05T08:34:05.140Z,7.90
2023-02-05T08:36:36.577Z,7.90
2023-02-05T08:39:08.050Z,8.65
2023-02-05T08:41:39.477Z,7.55
2023-02-05T08:44:10.941Z,8.93
2023-02-05T08:46:49.925Z,8.53
2023-02-05T08:49:22.262Z,7.65
2023-02-05T08:51:53.731Z,7.68
2023-02-05T08:54:25.596Z,7.68
2023-02-05T08:56:57.129Z,8.75
2023-02-05T08:59:28.588Z,8.40
2023-02-05T09:02:00.030Z,8.68
2023-02-05T09:04:31.552Z,8.07
2023-02-05T09:07:02.985Z,8.90
2023-02-05T09:09:34.476Z,7.97
2023-02-05T09:12:06.218Z,8.68
2023-02-05T09:14:39.039Z,8.93
2023-02-05T09:17:11.226Z,8.57
2023-02-05T09:19:42.700Z,9.02
2023-02-05T09:22:14.176Z,8.70
2023-02-05T09:24:45.583Z,8.90
2023-02-05T09:27:17.069Z,9.15
2023-02-05T09:29:48.481Z,8.85
2023-02-05T09:32:19.936Z,9.20
2023-02-05T09:34:51.407Z,8.25
2023-02-05T09:37:22.904Z,8.77
2023-02-05T09:43:18.963Z,9.57
2023-02-05T09:45:50.335Z,8.90
2023-02-05T09:48:46.082Z,9.60
2023-02-05T09:51:31.940Z,8.83
2023-02-05T09:54:22.454Z,9.25
2023-02-05T09:56:57.848Z,9.20
2023-02-05T09:59:30.653Z,8.93
2023-02-05T10:02:22.272Z,8.48
2023-02-05T10:04:54.788Z,8.27
2023-02-05T10:07:46.825Z,8.70
2023-02-05T10:10:25.929Z,8.82
2023-02-05T10:13:19.282Z,8.52
2023-02-05T10:15:53.525Z,8.65
2023-02-05T10:18:51.351Z,8.50
2023-02-05T10:21:39.089Z,8.13
2023-02-05T10:24:30.330Z,8.27
2023-02-05T10:27:14.216Z,8.52
2023-02-05T10:30:02.359Z,8.70
2023-02-05T10:32:47.538Z,9.15
2023-02-05T10:35:26.697Z,9.43
2023-02-05T10:37:58.197Z,9.20
2023-02-05T10:40:34.198Z,8.73
2023-02-05T10:43:27.351Z,7.70
2023-02-05T10:45:59.801Z,8.88
2023-02-05T10:48:40.840Z,8.90
2023-02-05T10:51:16.696Z,8.88
2023-02-05T10:53:48.197Z,8.38
2023-02-05T10:56:20.742Z,8.77
2023-02-05T10:58:55.776Z,8.65
2023-02-05T11:01:36.546Z,8.32
2023-02-05T11:04:16.623Z,7.95
2023-02-05T11:06:50.409Z,7.47
2023-02-05T11:09:24.608Z,7.50
2023-02-05T11:12:02.711Z,7.65
2023-02-05T11:14:37.984Z,9.07
2023-02-05T11:17:18.452Z,7.90
2023-02-05T11:20:00.320Z,8.43
2023-02-05T11:22:37.112Z,8.20
2023-02-05T11:25:24.232Z,8.32
2023-02-05T11:27:57.859Z,8.90
2023-02-05T11:33:28.503Z,8.32
2023-02-05T11:36:02.748Z,9.07
2023-02-05T11:38:43.225Z,8.07
2023-02-05T11:41:27.800Z,8.88
2023-02-05T11:44:02.102Z,7.45
2023-02-05T11:46:43.070Z,8.80
2023-02-05T11:49:22.892Z,8.57
2023-02-05T11:51:56.174Z,8.13
2023-02-05T11:54:30.436Z,8.33
2023-02-05T11:57:18.308Z,7.95
2023-02-05T12:00:18.280Z,8.65
2023-02-05T12:02:49.768Z,8.30
2023-02-05T12:05:27.035Z,8.48
2023-02-05T12:08:27.734Z,7.80
2023-02-05T12:11:17.388Z,7.32
2023-02-05T12:14:20.253Z,7.33
2023-02-05T12:17:06.032Z,7.80
2023-02-05T12:19:51.837Z,7.57
2023-02-05T12:22:55.630Z,7.50
2023-02-05T12:25:38.123Z,7.47
2023-02-05T12:28:22.964Z,7.20
2023-02-05T12:31:18.640Z,7.72
2023-02-05T12:34:24.771Z,7.07
2023-02-05T12:37:14.712Z,6.85
2023-02-05T12:39:50.440Z,7.37
2023-02-05T12:42:36.172Z,6.93
2023-02-05T12:45:25.961Z,7.35
2023-02-05T12:48:18.673Z,8.10
2023-02-05T12:51:21.408Z,6.78
2023-02-05T12:54:27.338Z,7.55
2023-02-05T12:57:08.556Z,7.15
2023-02-05T12:59:39.948Z,7.10
2023-02-05T13:02:26.450Z,7.60
2023-02-05T13:05:13.267Z,6.35
2023-02-05T13:08:05.922Z,7.10
2023-02-05T13:11:05.931Z,7.18
2023-02-05T13:13:50.644Z,8.20
2023-02-05T13:16:30.134Z,6.88
2023-02-05T13:19:10.056Z,6.65
2023-02-05T13:21:42.529Z,6.95
2023-02-05T13:24:35.797Z,7.88
2023-02-05T13:27:21.509Z,7.18
2023-02-05T13:29:53.939Z,7.83
2023-02-05T13:32:26.156Z,8.07
2023-02-05T13:34:57.667Z,7.78
2023-02-05T13:38:00.380Z,8.03
2023-02-05T13:40:43.942Z,8.02
2023-02-05T13:43:38.933Z,7.50
2023-02-05T13:46:29.860Z,8.02
2023-02-05T13:49:20.156Z,7.67
2023-02-05T13:51:51.526Z,7.82
2023-02-05T13:54:58.276Z,8.20
2023-02-05T13:57:54.069Z,8.80
2023-02-05T14:00:26.539Z,8.53
2023-02-05T14:03:00.060Z,7.95
2023-02-05T14:05:37.718Z,8.20
2023-02-05T14:08:24.261Z,7.82
2023-02-05T14:11:02.184Z,7.80
2023-02-05T14:13:34.907Z,8.63
2023-02-05T14:16:24.401Z,7.90
2023-02-05T14:19:01.973Z,7.93
2023-02-05T14:21:33.382Z,8.07
2023-02-05T14:24:38.628Z,7.97
2023-02-05T14:27:40.203Z,8.20
2023-02-05T14:30:29.881Z,8.70
2023-02-05T14:33:26.799Z,7.60
2023-02-05T14:36:18.205Z,8.53
2023-02-05T14:39:00.942Z,8.25
2023-02-05T14:41:41.548Z,8.37
2023-02-05T14:44:12.949Z,8.60
2023-02-05T14:47:04.657Z,8.38
2023-02-05T14:49:41.379Z,7.95
2023-02-05T14:52:27.975Z,8.80
2023-02-05T14:55:05.468Z,9.27
2023-02-05T14:58:00.302Z,8.02
2023-02-05T15:00:38.411Z,8.03
2023-02-05T15:03:12.860Z,7.80
2023-02-05T15:05:44.235Z,7.35
2023-02-05T15:08:34.121Z,8.18
2023-02-05T15:11:09.360Z,8.05
2023-02-05T15:13:41.256Z,8.25
2023-02-05T15:16:12.752Z,8.82
2023-02-05T15:18:47.233Z,8.23
2023-02-05T15:21:33.526Z,8.38
2023-02-05T15:24:24.591Z,8.83
2023-02-05T15:26:58.744Z,7.97
2023-02-05T15:29:49.529Z,7.97
2023-02-05T15:32:35.276Z,7.78
2023-02-05T15:35:15.141Z,9.55
2023-02-05T15:37:52.814Z,8.75
2023-02-05T15:40:30.622Z,7.55
2023-02-05T15:43:15.791Z,8.05
2023-02-05T15:45:48.083Z,8.52
2023-02-05T15:48:25.667Z,8.25
2023-02-05T15:51:02.263Z,8.10
2023-02-05T15:53:44.920Z,8.48
2023-02-05T15:56:27.224Z,8.73
2023-02-05T15:59:12.929Z,8.20
2023-02-05T16:01:48.005Z,8.77
2023-02-05T16:04:22.260Z,7.53
2023-02-05T16:06:53.767Z,8.60
2023-02-05T16:09:28.323Z,8.30
2023-02-05T16:12:12.036Z,7.55
2023-02-05T16:14:43.906Z,8.50
2023-02-05T16:17:48.692Z,9.07
2023-02-05T16:20:30.197Z,7.97
2023-02-05T16:23:09.051Z,8.27
2023-02-05T16:25:45.640Z,8.73
2023-02-05T16:28:22.976Z,8.38
2023-02-05T16:30:57.058Z,8.93
2023-02-05T16:33:43.372Z,7.80
2023-02-05T16:36:31.800Z,8.45
2023-02-05T16:39:07.127Z,8.40
2023-02-05T16:41:42.608Z,8.90
2023-02-05T16:44:36.126Z,8.73
2023-02-05T16:47:19.255Z,8.68
2023-02-05T16:49:50.744Z,7.93
2023-02-05T16:52:36.183Z,8.83
2023-02-05T16:55:27.584Z,8.77
2023-02-05T16:58:05.335Z,7.60
2023-02-05T17:00:37.083Z,9.48
2023-02-05T17:03:19.120Z,9.10
2023-02-05T17:05:56.986Z,8.23
2023-02-05T17:08:35.175Z,9.52
2023-02-05T17:11:27.671Z,8.10
2023-02-05T17:14:29.292Z,8.80
2023-02-05T17:17:16.316Z,9.15
2023-02-05T17:20:07.631Z,8.88
2023-02-05T17:22:39.059Z,8.55
2023-02-05T17:25:10.516Z,8.73
2023-02-05T17:27:42.163Z,8.93
2023-02-05T17:30:18.180Z,9.07
2023-02-05T17:32:49.716Z,9.00
2023-02-05T17:35:22.390Z,9.27
2023-02-05T17:37:53.856Z,8.57
2023-02-05T17:40:25.324Z,8.20
2023-02-05T17:42:56.820Z,8.50
2023-02-05T17:45:32.448Z,8.27
2023-02-05T17:48:04.216Z,9.27
2023-02-05T17:50:36.695Z,9.27
2023-02-05T17:53:11.497Z,8.93
2023-02-05T17:55:42.992Z,8.98
2023-02-05T17:58:14.492Z,8.60
2023-02-05T18:00:45.949Z,9.65
2023-02-05T18:03:17.468Z,9.18
2023-02-05T18:05:48.935Z,8.55
2023-02-05T18:08:20.392Z,9.02
2023-02-05T18:10:51.823Z,8.17
2023-02-05T18:13:23.308Z,8.57
2023-02-05T18:15:54.848Z,8.23
2023-02-05T18:18:26.345Z,8.80
2023-02-05T18:20:58.660Z,8.00
2023-02-05T18:23:30.560Z,8.50
2023-02-05T18:26:05.116Z,8.98
2023-02-05T18:28:36.557Z,8.70
2023-02-05T18:31:09.423Z,9.93
2023-02-05T18:33:41.319Z,7.90
2023-02-05T18:36:14.350Z,9.60
2023-02-05T18:38:45.791Z,8.63
2023-02-05T18:41:20.235Z,9.18
2023-02-05T18:43:55.479Z,9.60
2023-02-05T18:46:27.006Z,9.18
2023-02-05T18:48:58.499Z,9.82
2023-02-05T18:51:30.080Z,9.23
2023-02-05T18:54:01.540Z,9.40
2023-02-05T18:56:33.994Z,10.00
2023-02-05T18:59:07.484Z,9.07
2023-02-05T19:01:39.904Z,9.20
2023-02-05T19:04:14.476Z,9.57
2023-02-05T19:06:48.727Z,9.80
2023-02-05T19:09:25.625Z,10.23
2023-02-05T19:11:57.175Z,10.13
2023-02-05T19:14:28.915Z,10.75
2023-02-05T19:17:00.354Z,10.07
2023-02-05T19:19:31.863Z,10.35
2023-02-05T19:22:03.397Z,8.27
2023-02-05T19:24:34.841Z,9.23
2023-02-05T19:27:06.383Z,9.77
2023-02-05T19:29:37.943Z,10.00
2023-02-05T19:32:09.438Z,8.98
2023-02-05T19:34:40.896Z,9.52
2023-02-05T19:37:12.518Z,9.70
2023-02-05T19:39:43.939Z,10.13
2023-02-05T19:42:15.365Z,10.50
2023-02-05T19:44:46.820Z,10.38
2023-02-05T19:47:18.447Z,10.45
2023-02-05T19:49:49.922Z,9.77
2023-02-05T19:52:21.359Z,9.95
2023-02-05T19:54:52.785Z,10.13
2023-02-05T19:57:24.265Z,12.55
2023-02-05T19:59:55.685Z,11.55
2023-02-05T20:02:27.626Z,10.23
2023-02-05T20:04:59.151Z,10.73
2023-02-05T20:07:30.799Z,10.15
2023-02-05T20:10:02.237Z,10.45
2023-02-05T20:12:33.779Z,9.75
2023-02-05T20:15:05.620Z,8.63
2023-02-05T20:17:37.357Z,9.60
2023-02-05T20:20:17.609Z,9.90
2023-02-05T20:22:53.792Z,10.47
2023-02-05T20:25:25.208Z,9.63
2023-02-05T20:27:56.727Z,9.77
2023-02-05T20:30:28.193Z,10.77
2023-02-05T20:32:59.731Z,10.70
2023-02-05T20:35:31.183Z,10.50
2023-02-05T20:38:02.963Z,9.23
2023-02-05T20:40:34.705Z,10.48
2023-02-05T20:43:06.373Z,11.25
2023-02-05T20:45:37.830Z,10.38
2023-02-05T20:48:09.248Z,8.63
2023-02-05T20:50:40.909Z,9.70
2023-02-05T20:53:12.304Z,9.53
2023-02-05T20:55:43.704Z,8.90
2023-02-05T20:58:15.105Z,9.90
2023-02-05T21:00:46.758Z,8.60
2023-02-05T21:03:18.160Z,10.27
2023-02-05T21:05:49.583Z,9.30
2023-02-05T21:08:21.062Z,9.57
2023-02-05T21:10:52.532Z,9.23
2023-02-05T21:13:23.995Z,10.00
2023-02-05T21:15:58.350Z,9.90
2023-02-05T21:18:30.690Z,10.25
2023-02-05T21:21:10.597Z,9.70
2023-02-05T21:23:42.937Z,9.70
2023-02-05T21:26:22.912Z,9.80
2023-02-05T21:28:56.987Z,10.52
2023-02-05T21:31:30.937Z,9.27
2023-02-05T21:34:04.775Z,9.98
2023-02-05T21:36:36.404Z,10.55
2023-02-05T21:39:07.922Z,10.20
2023-02-05T21:41:39.326Z,10.27
2023-02-05T21:44:11.000Z,7.82
2023-02-05T21:46:42.976Z,9.10
2023-02-05T21:49:14.447Z,8.77
2023-02-05T21:51:45.885Z,8.73
2023-02-05T21:54:17.353Z,7.97
2023-02-05T21:56:48.753Z,8.60
2023-02-05T21:59:20.152Z,9.40
2023-02-05T22:01:51.718Z,7.88
2023-02-05T22:04:23.203Z,7.75
2023-02-05T22:06:54.672Z,8.50
2023-02-05T22:09:26.123Z,7.70
2023-02-05T22:11:57.612Z,7.65
2023-02-05T22:14:30.364Z,7.13
2023-02-05T22:17:01.853Z,7.83
2023-02-05T22:19:33.298Z,8.57
2023-02-05T22:22:04.729Z,9.50
2023-02-05T22:24:36.146Z,7.78
2023-02-05T22:27:07.643Z,7.85
2023-02-05T22:29:39.109Z,7.82
2023-02-05T22:32:10.559Z,7.90
2023-02-05T22:34:43.567Z,8.25
2023-02-05T22:37:15.111Z,8.93
2023-02-05T22:39:47.501Z,7.97
2023-02-05T22:42:19.173Z,8.20
2023-02-05T22:44:50.663Z,7.75
2023-02-05T22:47:22.097Z,7.55
2023-02-05T22:49:53.501Z,9.02
2023-02-05T22:52:24.973Z,7.82
2023-02-05T22:54:56.377Z,8.30
2023-02-05T22:57:27.808Z,8.80
2023-02-05T22:59:59.211Z,9.20
2023-02-05T23:02:30.900Z,8.75
2023-02-05T23:05:02.414Z,8.20
2023-02-05T23:07:33.836Z,8.50
2023-02-05T23:10:05.487Z,7.68
2023-02-05T23:12:36.924Z,8.23
2023-02-05T23:15:08.562Z,7.88
2023-02-05T23:17:40.605Z,8.23
2023-02-05T23:20:12.267Z,7.80
2023-02-05T23:22:43.748Z,8.00
2023-02-05T23:25:15.291Z,7.57
2023-02-05T23:27:46.743Z,7.88
2023-02-05T23:30:18.472Z,6.97
2023-02-05T23:32:49.928Z,8.07
2023-02-05T23:35:21.328Z,7.50
2023-02-05T23:37:52.768Z,6.93
2023-02-05T23:40:24.197Z,8.38
2023-02-05T23:42:55.616Z,7.87
2023-02-05T23:45:27.041Z,9.20
2023-02-05T23:47:58.460Z,7.32
2023-02-05T23:50:29.915Z,7.60
2023-02-05T23:53:01.371Z,8.35
2023-02-05T23:55:32.906Z,7.60
2023-02-05T23:58:04.446Z,8.70
